Portada
METAR-TAF:

METAR-TAF

Aeroports :

Rajkot, Índia

latitud: 22-18N, longitud: 070-47E, altitud: 134 m

METAR: manca

Hora: 21:04 (15:34 UTC)

Pronòstic

L'informe es va fer fa 7 hores i 34 minuts, a les 08:00 UTC
Pronòstic vàlid del 25 a les 09 UTC al 25 a les 18 UTC
Vent 12 kt del Oest
Visibilitat: 6000 m
Evolucionant progressivament
l' 25 a les 13 UTC al 25 a les 15 UTC
Vent 8 kt del Oest

TAF: VARK 250800Z 2509/2518 28012KT 6000 NSC BECMG 2513/2515 27008KT

Observacions i pronòstics meteorològics de més de 4000 aeroports (METAR i TAF).

Les estacions disponibles són els punts grocs i vermells al mapa.

Posi el ratolí al punt desitjat per veure el nom de l'estació.

Feu clic per veure les observacions i els pronòstics meteorològics.

Per canviar el mapa: feu clic els botons verds amb una creu de color negre per apropar; al botó verd amb un guió per allunyar la imatge; o en les fletxes verdes per a mapes adjacents.


METAR-TAF: